createdAt,value
2022-10-28T00:01:17.995Z,8.80
2022-10-28T00:03:50.260Z,10.50
2022-10-28T00:06:22.931Z,8.20
2022-10-28T00:08:54.547Z,11.60
2022-10-28T00:11:27.200Z,9.20
2022-10-28T00:13:59.499Z,11.70
2022-10-28T00:16:32.294Z,13.40
2022-10-28T00:19:04.566Z,10.80
2022-10-28T00:21:37.019Z,10.30
2022-10-28T00:24:09.524Z,9.90
2022-10-28T00:26:42.556Z,9.60
2022-10-28T00:29:15.073Z,9.30
2022-10-28T00:31:47.332Z,10.50
2022-10-28T00:34:21.469Z,10.50
2022-10-28T00:36:53.045Z,12.30
2022-10-28T00:41:56.393Z,13.90
2022-10-28T00:45:00.490Z,19.70
2022-10-28T00:47:37.938Z,14.60
2022-10-28T00:50:19.577Z,12.60
2022-10-28T00:52:55.277Z,12.00
2022-10-28T00:55:26.851Z,12.40
2022-10-28T00:57:58.545Z,11.30
2022-10-28T01:00:30.131Z,10.50
2022-10-28T01:03:01.729Z,11.40
2022-10-28T01:05:34.111Z,9.50
2022-10-28T01:08:06.186Z,8.70
2022-10-28T01:10:48.383Z,9.90
2022-10-28T01:13:25.458Z,9.70
2022-10-28T01:15:59.740Z,8.60
2022-10-28T01:18:33.569Z,9.30
2022-10-28T01:21:39.048Z,9.60
2022-10-28T01:24:19.371Z,9.70
2022-10-28T01:27:09.500Z,10.00
2022-10-28T01:30:05.753Z,9.00
2022-10-28T01:32:41.163Z,9.10
2022-10-28T01:35:15.642Z,8.50
2022-10-28T01:37:51.002Z,10.00
2022-10-28T01:40:25.173Z,10.80
2022-10-28T01:42:59.161Z,8.80
2022-10-28T01:45:32.539Z,8.70
2022-10-28T01:48:04.534Z,9.30
2022-10-28T01:50:37.536Z,9.40
2022-10-28T01:53:11.358Z,11.90
2022-10-28T01:55:44.550Z,8.00
2022-10-28T01:58:18.008Z,8.10
2022-10-28T02:00:49.659Z,8.80
2022-10-28T02:05:51.933Z,7.60
2022-10-28T02:08:32.200Z,7.70
2022-10-28T02:11:09.356Z,7.00
2022-10-28T02:13:44.215Z,8.50
2022-10-28T02:16:18.801Z,7.00
2022-10-28T02:18:53.629Z,11.10
2022-10-28T02:21:28.561Z,6.90
2022-10-28T02:24:02.296Z,7.70
2022-10-28T02:26:35.952Z,9.90
2022-10-28T02:29:09.933Z,8.20
2022-10-28T02:31:44.293Z,7.80
2022-10-28T02:34:17.871Z,6.90
2022-10-28T02:36:50.641Z,7.30
2022-10-28T02:39:25.908Z,6.50
2022-10-28T02:41:58.698Z,7.10
2022-10-28T02:44:32.205Z,13.10
2022-10-28T02:47:06.369Z,11.20
2022-10-28T02:49:37.938Z,7.10
2022-10-28T02:52:09.407Z,7.30
2022-10-28T02:54:42.045Z,6.60
2022-10-28T02:57:14.320Z,6.30
2022-10-28T02:59:45.807Z,6.50
2022-10-28T03:02:17.631Z,9.70
2022-10-28T03:04:49.519Z,9.40
2022-10-28T03:07:21.086Z,6.30
2022-10-28T03:09:52.602Z,6.50
2022-10-28T03:12:24.140Z,6.80
2022-10-28T03:14:55.566Z,6.40
2022-10-28T03:17:27.121Z,15.80
2022-10-28T03:19:58.796Z,24.10
2022-10-28T03:22:30.379Z,10.90
2022-10-28T03:25:01.965Z,7.90
2022-10-28T03:27:33.415Z,7.00
2022-10-28T03:30:05.218Z,7.80
2022-10-28T03:35:08.352Z,6.30
2022-10-28T03:37:40.175Z,5.70
2022-10-28T03:42:43.172Z,5.80
2022-10-28T03:45:15.233Z,8.00
2022-10-28T03:47:46.887Z,9.20
2022-10-28T03:50:18.596Z,6.70
2022-10-28T03:52:50.120Z,10.00
2022-10-28T03:55:24.212Z,8.00
2022-10-28T03:57:55.875Z,6.40
2022-10-28T04:00:28.007Z,6.50
2022-10-28T04:02:59.399Z,7.90
2022-10-28T04:05:30.861Z,6.30
2022-10-28T04:08:02.195Z,6.40
2022-10-28T04:13:04.481Z,6.40
2022-10-28T04:15:35.939Z,7.70
2022-10-28T04:18:07.644Z,7.40
2022-10-28T04:20:39.333Z,8.60
2022-10-28T04:23:12.275Z,7.00
2022-10-28T04:25:44.082Z,7.60
2022-10-28T04:28:15.484Z,7.00
2022-10-28T04:30:47.542Z,9.80
2022-10-28T04:33:18.973Z,7.80
2022-10-28T04:35:50.418Z,7.60
2022-10-28T04:38:22.104Z,8.40
2022-10-28T04:40:53.634Z,6.40
2022-10-28T04:43:25.022Z,7.80
2022-10-28T04:45:56.795Z,7.00
2022-10-28T04:48:28.447Z,8.00
2022-10-28T04:51:01.560Z,10.00
2022-10-28T04:53:32.951Z,8.10
2022-10-28T04:56:04.615Z,6.70
2022-10-28T04:58:36.111Z,9.40
2022-10-28T05:01:10.572Z,6.10
2022-10-28T05:03:43.322Z,8.50
2022-10-28T05:06:15.240Z,7.60
2022-10-28T05:08:46.783Z,7.90
2022-10-28T05:11:18.320Z,8.20
2022-10-28T05:13:49.925Z,9.70
2022-10-28T05:16:21.804Z,7.40
2022-10-28T05:18:53.707Z,6.70
2022-10-28T05:21:25.455Z,6.90
2022-10-28T05:23:57.258Z,8.90
2022-10-28T05:26:29.555Z,7.10
2022-10-28T05:31:31.246Z,6.50
2022-10-28T05:34:02.857Z,7.50
2022-10-28T05:39:04.355Z,9.20
2022-10-28T05:41:38.756Z,7.20
2022-10-28T05:44:11.054Z,6.70
2022-10-28T05:46:42.509Z,8.20
2022-10-28T05:49:14.157Z,6.60
2022-10-28T05:51:45.734Z,6.50
2022-10-28T05:54:17.299Z,11.80
2022-10-28T05:56:49.231Z,6.60
2022-10-28T05:59:20.924Z,6.50
2022-10-28T06:01:52.689Z,5.70
2022-10-28T06:04:24.871Z,7.30
2022-10-28T06:06:58.687Z,6.80
2022-10-28T06:09:31.781Z,7.20
2022-10-28T06:12:01.916Z,9.60
2022-10-28T06:14:34.177Z,7.00
2022-10-28T06:17:05.664Z,6.10
2022-10-28T06:19:37.315Z,8.50
2022-10-28T06:22:08.847Z,9.80
2022-10-28T06:24:40.567Z,7.00
2022-10-28T06:27:12.064Z,6.50
2022-10-28T06:29:44.372Z,6.40
2022-10-28T06:34:45.942Z,8.00
2022-10-28T06:37:17.259Z,9.10
2022-10-28T06:39:51.750Z,7.80
2022-10-28T06:42:23.289Z,7.40
2022-10-28T06:44:54.990Z,5.60
2022-10-28T06:49:58.259Z,7.10
2022-10-28T06:52:29.825Z,5.60
2022-10-28T06:55:01.630Z,7.10
2022-10-28T06:57:33.622Z,7.10
2022-10-28T07:00:05.610Z,10.10
2022-10-28T07:02:41.380Z,8.10
2022-10-28T07:05:17.833Z,8.10
2022-10-28T07:07:49.449Z,9.00
2022-10-28T07:10:21.934Z,9.60
2022-10-28T07:12:55.465Z,7.40
2022-10-28T07:15:27.702Z,8.80
2022-10-28T07:17:59.867Z,9.00
2022-10-28T07:20:33.187Z,12.60
2022-10-28T07:23:05.731Z,8.90
2022-10-28T07:25:38.221Z,9.40
2022-10-28T07:28:10.662Z,8.90
2022-10-28T07:30:42.746Z,10.70
2022-10-28T07:35:44.656Z,8.60
2022-10-28T07:38:16.799Z,7.60
2022-10-28T07:40:48.769Z,8.10
2022-10-28T07:43:20.500Z,6.80
2022-10-28T07:48:22.060Z,9.70
2022-10-28T07:53:26.379Z,8.30
2022-10-28T07:56:02.405Z,8.80
2022-10-28T07:58:34.349Z,9.20
2022-10-28T08:01:07.213Z,7.70
2022-10-28T08:03:39.371Z,7.20
2022-10-28T08:06:12.604Z,7.00
2022-10-28T08:08:44.058Z,6.00
2022-10-28T08:13:45.741Z,5.30
2022-10-28T08:16:17.433Z,6.40
2022-10-28T08:18:48.918Z,8.80
2022-10-28T08:21:20.316Z,8.40
2022-10-28T08:23:52.309Z,10.70
2022-10-28T08:28:54.097Z,10.60
2022-10-28T08:31:25.917Z,9.60
2022-10-28T08:36:27.237Z,7.70
2022-10-28T08:38:59.610Z,7.20
2022-10-28T08:41:36.436Z,6.70
2022-10-28T08:44:26.076Z,6.50
2022-10-28T08:47:16.159Z,5.90
2022-10-28T08:49:49.346Z,6.30
2022-10-28T08:52:28.247Z,5.80
2022-10-28T08:55:02.780Z,3.90
2022-10-28T08:57:38.216Z,6.70
2022-10-28T09:00:15.111Z,5.10
2022-10-28T09:03:00.315Z,4.90
2022-10-28T09:05:32.004Z,5.90
2022-10-28T09:08:03.445Z,4.10
2022-10-28T09:10:52.159Z,4.60
2022-10-28T09:13:27.593Z,5.80
2022-10-28T09:16:01.896Z,5.00
2022-10-28T09:18:43.932Z,3.90
2022-10-28T09:23:49.717Z,5.80
2022-10-28T09:26:24.741Z,5.60
2022-10-28T09:29:01.072Z,5.40
2022-10-28T09:31:35.963Z,4.90
2022-10-28T09:34:17.821Z,5.10
2022-10-28T09:39:42.755Z,5.10
2022-10-28T09:42:18.987Z,4.50
2022-10-28T09:44:53.744Z,4.40
2022-10-28T09:47:26.718Z,4.10
2022-10-28T09:50:01.225Z,3.70
2022-10-28T09:52:35.065Z,4.00
2022-10-28T09:55:10.608Z,5.90
2022-10-28T10:00:33.870Z,3.90
2022-10-28T10:03:05.593Z,3.70
2022-10-28T10:05:39.271Z,3.80
2022-10-28T10:08:12.703Z,4.90
2022-10-28T10:10:47.678Z,4.30
2022-10-28T10:13:20.680Z,4.10
2022-10-28T10:15:55.458Z,4.50
2022-10-28T10:18:28.854Z,3.30
2022-10-28T10:21:00.569Z,3.60
2022-10-28T10:23:33.702Z,4.10
2022-10-28T10:26:09.676Z,3.80
2022-10-28T10:28:45.293Z,3.80
2022-10-28T10:31:21.782Z,3.70
2022-10-28T10:33:53.454Z,3.70
2022-10-28T10:38:56.173Z,4.10
2022-10-28T10:41:37.302Z,4.00
2022-10-28T10:47:22.983Z,4.50
2022-10-28T10:49:55.819Z,3.70
2022-10-28T10:52:28.877Z,4.30
2022-10-28T10:55:05.457Z,3.90
2022-10-28T11:00:29.883Z,3.70
2022-10-28T11:06:18.383Z,3.30
2022-10-28T11:08:49.571Z,5.20
2022-10-28T11:14:25.051Z,3.60
2022-10-28T11:25:39.712Z,7.60
2022-10-28T11:28:26.143Z,5.00
2022-10-28T11:31:01.717Z,4.80
2022-10-28T11:33:36.506Z,5.40
2022-10-28T11:36:15.206Z,5.20
2022-10-28T11:39:07.300Z,5.80
2022-10-28T11:44:22.396Z,5.50
2022-10-28T11:50:09.537Z,4.20
2022-10-28T11:52:51.240Z,3.60
2022-10-28T11:58:20.906Z,4.20
2022-10-28T12:00:58.317Z,4.10
2022-10-28T12:07:02.563Z,4.50
2022-10-28T12:09:39.283Z,3.40
2022-10-28T12:12:16.570Z,4.10
2022-10-28T12:14:53.668Z,3.50
2022-10-28T12:23:11.226Z,3.60
2022-10-28T12:25:43.870Z,4.40
2022-10-28T12:33:45.805Z,4.60
2022-10-28T12:36:21.650Z,5.50
2022-10-28T12:38:57.652Z,4.50
2022-10-28T12:41:44.538Z,3.90
2022-10-28T12:44:17.380Z,4.70
2022-10-28T12:46:54.560Z,5.00
2022-10-28T12:49:27.460Z,4.80
2022-10-28T12:51:59.593Z,5.20
2022-10-28T12:54:32.393Z,3.90
2022-10-28T12:57:06.276Z,4.20
2022-10-28T13:02:31.186Z,7.20
2022-10-28T13:05:02.839Z,3.90
2022-10-28T13:07:52.459Z,5.00
2022-10-28T13:13:45.223Z,3.70
2022-10-28T13:16:34.803Z,4.40
2022-10-28T13:19:18.766Z,3.90
2022-10-28T13:22:08.411Z,4.00
2022-10-28T13:27:32.647Z,5.00
2022-10-28T13:33:02.248Z,7.10
2022-10-28T13:35:33.783Z,6.30
2022-10-28T13:38:06.307Z,8.50
2022-10-28T13:41:12.191Z,6.00
2022-10-28T13:47:30.226Z,4.30
2022-10-28T13:50:38.199Z,4.70
2022-10-28T13:53:42.703Z,5.90
2022-10-28T13:59:17.340Z,7.30
2022-10-28T14:02:07.848Z,4.50
2022-10-28T14:07:35.711Z,4.00
2022-10-28T14:10:24.952Z,5.30
2022-10-28T14:12:58.193Z,5.00
2022-10-28T14:15:31.657Z,5.40
2022-10-28T14:18:22.523Z,6.10
2022-10-28T14:21:01.981Z,3.80
2022-10-28T14:27:31.191Z,5.30
2022-10-28T14:30:25.152Z,4.90
2022-10-28T14:33:11.760Z,6.20
2022-10-28T14:35:44.800Z,6.00
2022-10-28T14:38:46.786Z,9.40
2022-10-28T14:50:38.880Z,5.20
2022-10-28T14:53:13.684Z,5.50
2022-10-28T14:55:45.952Z,5.90
2022-10-28T14:58:23.966Z,6.00
2022-10-28T15:01:01.963Z,5.20
2022-10-28T15:06:39.397Z,5.40
2022-10-28T15:09:22.500Z,6.40
2022-10-28T15:11:57.510Z,5.60
2022-10-28T15:14:34.585Z,5.10
2022-10-28T15:17:14.043Z,6.10
2022-10-28T15:22:34.510Z,14.20
2022-10-28T15:25:08.378Z,10.80
2022-10-28T15:27:41.742Z,6.60
2022-10-28T15:30:19.214Z,10.20
2022-10-28T15:32:50.884Z,8.60
2022-10-28T15:44:41.882Z,8.70
2022-10-28T15:52:53.828Z,7.00
2022-10-28T15:56:02.432Z,6.50
2022-10-28T15:58:39.332Z,6.90
2022-10-28T16:01:29.600Z,6.50
2022-10-28T16:06:50.182Z,6.80
2022-10-28T16:09:24.519Z,7.00
2022-10-28T16:11:57.732Z,6.50
2022-10-28T16:14:37.571Z,6.80
2022-10-28T16:17:16.166Z,6.70
2022-10-28T16:19:51.088Z,9.20
2022-10-28T16:22:22.587Z,6.50
2022-10-28T16:30:15.492Z,6.10
2022-10-28T16:32:48.570Z,5.50
2022-10-28T16:35:21.440Z,8.10
2022-10-28T16:37:55.379Z,7.20
2022-10-28T16:43:20.091Z,10.90
2022-10-28T16:45:51.922Z,7.90
2022-10-28T16:53:47.467Z,13.40
2022-10-28T16:56:19.599Z,12.20
2022-10-28T16:58:52.018Z,8.90
2022-10-28T17:01:23.991Z,7.60
2022-10-28T17:03:55.485Z,8.10
2022-10-28T17:06:27.226Z,8.40
2022-10-28T17:11:35.333Z,8.70
2022-10-28T17:14:06.869Z,12.50
2022-10-28T17:19:28.212Z,8.90
2022-10-28T17:21:59.833Z,10.30
2022-10-28T17:24:31.340Z,8.80
2022-10-28T17:27:02.779Z,8.50
2022-10-28T17:29:34.292Z,8.20
2022-10-28T17:32:07.094Z,7.60
2022-10-28T17:34:38.646Z,10.60
2022-10-28T17:37:10.767Z,13.70
2022-10-28T17:42:31.949Z,11.50
2022-10-28T17:45:03.337Z,12.20
2022-10-28T17:47:35.302Z,7.70
2022-10-28T17:50:07.608Z,9.00
2022-10-28T17:52:39.408Z,13.00
2022-10-28T17:57:44.985Z,8.20
2022-10-28T18:00:18.605Z,7.60
2022-10-28T18:02:50.204Z,9.30
2022-10-28T18:08:10.489Z,10.70
2022-10-28T18:10:42.893Z,8.80
2022-10-28T18:13:14.393Z,10.00
2022-10-28T18:15:46.163Z,8.30
2022-10-28T18:20:47.571Z,11.30
2022-10-28T18:26:08.028Z,13.30
2022-10-28T18:28:39.459Z,12.50
2022-10-28T18:31:12.467Z,18.20
2022-10-28T18:33:44.232Z,31.20
2022-10-28T18:36:17.546Z,24.30
2022-10-28T18:41:42.132Z,38.10
2022-10-28T18:44:17.208Z,12.80
2022-10-28T18:46:48.834Z,9.30
2022-10-28T18:52:09.184Z,29.40
2022-10-28T18:57:10.529Z,13.60
2022-10-28T19:02:31.344Z,10.20
2022-10-28T19:13:10.868Z,15.00
2022-10-28T19:18:15.490Z,10.70
2022-10-28T19:20:50.947Z,13.20
2022-10-28T19:23:22.357Z,7.20
2022-10-28T19:28:30.793Z,7.60
2022-10-28T19:31:06.710Z,8.50
2022-10-28T19:33:39.672Z,9.30
2022-10-28T19:36:14.634Z,7.20
2022-10-28T19:38:46.504Z,6.40
2022-10-28T19:41:19.412Z,8.80
2022-10-28T19:43:56.830Z,8.80
2022-10-28T19:49:22.435Z,6.00
2022-10-28T19:51:58.085Z,7.10
2022-10-28T19:56:59.835Z,10.70
2022-10-28T19:59:31.332Z,7.60
2022-10-28T20:02:03.032Z,7.30
2022-10-28T20:07:04.709Z,7.20
2022-10-28T20:09:36.327Z,11.20
2022-10-28T20:12:08.934Z,40.50
2022-10-28T20:14:40.358Z,21.00
2022-10-28T20:17:14.323Z,21.90
2022-10-28T20:19:45.930Z,14.20
2022-10-28T20:22:18.686Z,9.60
2022-10-28T20:24:50.882Z,9.00
2022-10-28T20:27:22.838Z,15.60
2022-10-28T20:29:54.808Z,10.10
2022-10-28T20:32:26.900Z,7.30
2022-10-28T20:37:29.212Z,9.20
2022-10-28T20:42:51.062Z,10.20
2022-10-28T20:45:22.794Z,10.60
2022-10-28T20:47:55.601Z,10.20
2022-10-28T20:50:27.330Z,13.70
2022-10-28T20:55:49.350Z,11.10
2022-10-28T20:58:21.884Z,19.00
2022-10-28T21:00:53.469Z,11.40
2022-10-28T21:05:54.987Z,10.90
2022-10-28T21:10:56.463Z,10.00
2022-10-28T21:13:28.369Z,11.00
2022-10-28T21:16:00.543Z,9.40
2022-10-28T21:18:32.078Z,8.00
2022-10-28T21:21:03.714Z,11.20
2022-10-28T21:23:35.581Z,11.90
